Time;durP1;ratioP1;P1;durP2;ratioP2;P2;SDS_P1;SDS_P2;PMS_P1;PMS_P2;Temp;Humidity;BMP_temperature;BMP_pressure;BME280_temperature;BME280_humidity;BME280_pressure;Samples;Min_cycle;Max_cycle;Signal;HPM_P1;HPM_P2
2021/12/23 00:04:50;;;;;;;44.10;34.93;;;1.20;98.20;;;;;;10506344;28;20248;-78
2021/12/23 00:15:27;;;;;;;42.67;33.60;;;1.20;97.80;;;;;;10503111;28;20565;-79
2021/12/23 00:25:52;;;;;;;40.80;33.43;;;1.20;97.80;;;;;;10505730;28;20571;-78
2021/12/23 00:30:56;;;;;;;39.33;32.17;;;1.20;98.40;;;;;;10506372;28;20242;-78
2021/12/23 00:35:59;;;;;;;39.43;32.43;;;1.30;98.40;;;;;;10512237;28;20223;-78
2021/12/23 00:41:03;;;;;;;39.30;31.80;;;1.30;97.50;;;;;;10514316;28;20204;-78
2021/12/23 00:46:06;;;;;;;39.60;32.43;;;1.20;96.90;;;;;;10505007;28;20737;-78
2021/12/23 00:51:09;;;;;;;39.87;32.30;;;1.00;97.30;;;;;;10486534;28;20200;-78
2021/12/23 00:56:12;;;;;;;38.50;32.17;;;0.90;97.60;;;;;;10504160;28;20303;-78
2021/12/23 01:01:16;;;;;;;39.43;32.80;;;0.90;97.90;;;;;;10503857;28;20330;-78
2021/12/23 01:06:20;;;;;;;38.13;31.07;;;0.90;98.00;;;;;;10487126;28;20227;-78
2021/12/23 01:11:24;;;;;;;37.20;31.00;;;0.90;98.10;;;;;;10504301;28;20197;-78
2021/12/23 01:16:47;;;;;;;37.33;30.80;;;1.00;98.40;;;;;;10503945;28;20700;-79
2021/12/23 01:21:50;;;;;;;39.60;31.87;;;1.00;98.00;;;;;;10504359;28;20215;-78
2021/12/23 01:26:52;;;;;;;37.43;30.73;;;1.00;98.00;;;;;;10486410;28;20224;-79
2021/12/23 01:31:56;;;;;;;43.37;34.33;;;1.10;98.40;;;;;;10503713;28;20645;-79
2021/12/23 01:36:58;;;;;;;39.53;32.50;;;1.10;98.10;;;;;;10502640;28;20701;-79
2021/12/23 01:42:00;;;;;;;39.57;32.53;;;1.20;98.10;;;;;;10505796;28;20223;-78
2021/12/23 01:47:04;;;;;;;39.00;32.00;;;1.20;98.00;;;;;;10503183;28;20227;-79
2021/12/23 01:52:07;;;;;;;36.20;30.43;;;1.20;97.80;;;;;;10503855;28;20272;-78
2021/12/23 01:57:10;;;;;;;39.27;31.13;;;1.30;98.00;;;;;;10501193;28;20224;-79
2021/12/23 02:02:13;;;;;;;39.20;30.40;;;1.40;98.20;;;;;;10498853;28;20244;-79
2021/12/23 02:07:15;;;;;;;36.97;31.80;;;1.40;97.20;;;;;;10501178;28;20208;-79
2021/12/23 02:12:18;;;;;;;38.00;31.83;;;1.40;97.70;;;;;;10485735;28;20201;-78
2021/12/23 02:17:22;;;;;;;38.13;31.10;;;1.40;97.60;;;;;;10502154;28;20213;-78
2021/12/23 02:22:25;;;;;;;35.10;30.90;;;1.40;97.80;;;;;;10500232;28;20220;-79
2021/12/23 02:27:29;;;;;;;39.67;32.03;;;1.50;97.80;;;;;;10501922;28;20238;-79
2021/12/23 02:32:31;;;;;;;35.90;30.07;;;1.40;97.60;;;;;;10501392;28;20248;-79
2021/12/23 02:37:35;;;;;;;37.90;31.50;;;1.50;97.80;;;;;;10501560;28;20220;-78
2021/12/23 02:42:37;;;;;;;36.87;31.20;;;1.50;97.70;;;;;;10501543;28;20197;-77
2021/12/23 02:47:39;;;;;;;39.00;29.70;;;1.50;97.50;;;;;;10503621;28;20589;-77
2021/12/23 02:52:43;;;;;;;37.80;30.77;;;1.50;97.30;;;;;;10500559;28;20196;-77
2021/12/23 02:57:45;;;;;;;38.33;31.50;;;1.60;97.70;;;;;;10500444;28;20212;-78
2021/12/23 03:02:47;;;;;;;35.97;30.43;;;1.60;97.50;;;;;;10502378;28;20192;-78
2021/12/23 03:07:51;;;;;;;37.33;31.27;;;1.60;97.60;;;;;;10500197;28;20213;-79
2021/12/23 03:12:53;;;;;;;52.93;47.10;;;1.60;97.80;;;;;;10500594;28;20649;-79
2021/12/23 03:17:55;;;;;;;33.30;27.93;;;1.70;97.50;;;;;;10500685;28;20250;-79
2021/12/23 03:22:58;;;;;;;34.20;28.37;;;1.70;96.90;;;;;;10504158;28;20204;-78
2021/12/23 03:28:00;;;;;;;33.40;28.30;;;1.70;96.40;;;;;;10509510;28;20208;-79
2021/12/23 03:33:02;;;;;;;33.80;28.30;;;1.60;95.90;;;;;;10507908;28;20201;-79
2021/12/23 03:38:07;;;;;;;32.77;27.67;;;1.50;97.10;;;;;;10525139;28;20228;-78
2021/12/23 03:43:11;;;;;;;33.93;27.53;;;1.40;96.90;;;;;;10516863;28;20200;-78
2021/12/23 03:48:14;;;;;;;32.53;26.57;;;1.30;96.40;;;;;;10508989;28;20277;-78
2021/12/23 03:53:18;;;;;;;33.00;27.37;;;1.20;95.90;;;;;;10508462;28;20267;-79
2021/12/23 03:58:20;;;;;;;33.33;27.80;;;1.10;97.40;;;;;;10511338;28;20221;-79
2021/12/23 04:03:23;;;;;;;32.90;27.53;;;1.10;96.40;;;;;;10530328;28;20191;-79
2021/12/23 04:08:26;;;;;;;34.17;27.53;;;1.10;97.50;;;;;;10507701;28;20213;-79
2021/12/23 04:13:28;;;;;;;35.50;28.37;;;1.10;98.20;;;;;;10507612;28;20216;-78
2021/12/23 04:18:31;;;;;;;36.07;29.87;;;1.20;97.80;;;;;;10507864;28;20303;-79
2021/12/23 04:23:34;;;;;;;32.10;28.00;;;1.30;97.70;;;;;;10507519;28;20196;-78
2021/12/23 04:28:45;;;;;;;35.20;28.00;;;1.40;97.40;;;;;;10508053;28;20205;-79
2021/12/23 04:33:50;;;;;;;33.20;27.77;;;1.50;97.50;;;;;;10506225;28;20669;-79
2021/12/23 04:38:54;;;;;;;36.67;28.17;;;1.60;97.20;;;;;;10507194;28;20223;-79
2021/12/23 04:43:56;;;;;;;31.63;26.03;;;1.60;97.00;;;;;;10508354;28;20188;-79
2021/12/23 04:48:59;;;;;;;30.00;23.97;;;1.60;97.10;;;;;;10507744;28;20201;-79
2021/12/23 04:54:02;;;;;;;29.67;22.97;;;1.70;96.60;;;;;;10508059;28;20671;-79
2021/12/23 04:59:04;;;;;;;30.77;25.20;;;1.80;96.80;;;;;;10503376;28;20346;-78
2021/12/23 05:04:06;;;;;;;29.70;25.57;;;1.80;96.90;;;;;;10503387;28;20271;-78
2021/12/23 05:09:10;;;;;;;32.63;25.60;;;1.90;96.70;;;;;;10485682;28;20307;-78
2021/12/23 05:14:12;;;;;;;28.63;24.73;;;2.00;96.40;;;;;;10485907;28;20260;-78
2021/12/23 05:19:14;;;;;;;31.07;25.47;;;1.90;95.50;;;;;;10484294;28;20242;-78
2021/12/23 05:24:17;;;;;;;26.80;22.53;;;2.00;97.00;;;;;;10501987;28;20228;-79
2021/12/23 05:29:19;;;;;;;32.67;26.00;;;1.90;97.10;;;;;;10505068;28;20283;-79
2021/12/23 05:34:22;;;;;;;34.17;25.50;;;1.90;96.90;;;;;;10504405;28;20197;-78
2021/12/23 05:39:25;;;;;;;29.40;22.73;;;1.90;95.30;;;;;;10503050;28;20308;-79
2021/12/23 05:44:27;;;;;;;28.00;23.23;;;1.90;95.70;;;;;;10503714;28;20232;-79
2021/12/23 05:49:29;;;;;;;28.33;22.50;;;1.80;95.50;;;;;;10503191;28;20296;-78
2021/12/23 05:54:33;;;;;;;28.23;22.93;;;1.80;94.60;;;;;;10503593;28;20199;-79
2021/12/23 05:59:36;;;;;;;29.50;23.13;;;1.70;95.80;;;;;;10502326;28;20223;-80
2021/12/23 06:04:38;;;;;;;28.30;23.40;;;1.60;96.60;;;;;;10498543;28;20270;-79
2021/12/23 06:09:41;;;;;;;30.63;24.53;;;1.60;96.90;;;;;;10498930;28;20693;-79
2021/12/23 06:14:43;;;;;;;27.57;23.37;;;1.70;97.00;;;;;;10499580;28;20664;-79
2021/12/23 06:19:45;;;;;;;30.17;26.03;;;1.70;97.10;;;;;;10498877;28;20219;-80
2021/12/23 06:24:50;;;;;;;30.80;25.37;;;1.80;96.90;;;;;;10500923;28;20193;-79
2021/12/23 06:29:52;;;;;;;30.33;26.17;;;1.80;97.10;;;;;;10498966;28;20283;-79
2021/12/23 06:34:54;;;;;;;30.30;24.77;;;1.80;97.40;;;;;;10499412;28;20193;-79
2021/12/23 06:39:57;;;;;;;29.90;24.27;;;1.80;96.60;;;;;;10508407;28;20235;-79
2021/12/23 06:44:59;;;;;;;31.70;26.23;;;1.80;96.80;;;;;;10517151;28;20567;-79
2021/12/23 06:50:02;;;;;;;32.00;25.27;;;1.80;97.00;;;;;;10496297;28;20215;-79
2021/12/23 06:55:06;;;;;;;33.53;26.73;;;1.90;96.60;;;;;;10495768;28;20265;-80
2021/12/23 07:00:13;;;;;;;28.77;24.77;;;1.90;97.00;;;;;;10504624;28;20248;-79
2021/12/23 07:05:16;;;;;;;31.50;23.97;;;1.90;96.80;;;;;;10505869;28;20619;-79
2021/12/23 07:10:20;;;;;;;28.90;24.00;;;1.90;96.40;;;;;;10506350;28;20230;-79
2021/12/23 07:15:23;;;;;;;30.63;26.50;;;1.80;96.50;;;;;;10506806;28;20200;-80
2021/12/23 07:20:27;;;;;;;31.03;24.53;;;1.80;96.70;;;;;;10505086;28;20243;-79
2021/12/23 07:25:30;;;;;;;31.57;26.27;;;1.80;97.10;;;;;;10503612;28;20249;-79
2021/12/23 07:30:33;;;;;;;30.50;25.37;;;1.90;96.50;;;;;;10504941;28;20228;-79
2021/12/23 07:35:35;;;;;;;32.73;25.40;;;1.80;97.30;;;;;;10487759;28;20224;-79
2021/12/23 07:40:38;;;;;;;29.90;24.87;;;1.80;97.20;;;;;;10503957;28;20343;-80
2021/12/23 07:45:40;;;;;;;36.03;28.20;;;1.80;97.50;;;;;;10504902;28;20189;-79
2021/12/23 07:50:42;;;;;;;34.03;28.40;;;1.80;97.50;;;;;;10487687;28;20189;-79
2021/12/23 07:55:46;;;;;;;29.07;24.30;;;1.80;97.70;;;;;;10486292;28;20656;-80
2021/12/23 08:00:48;;;;;;;33.20;25.77;;;1.90;96.80;;;;;;10503049;28;20227;-79
2021/12/23 08:05:52;;;;;;;31.70;27.20;;;1.90;96.60;;;;;;10502463;28;20197;-79
2021/12/23 08:10:55;;;;;;;33.17;26.03;;;1.70;96.90;;;;;;10499315;28;20192;-79
2021/12/23 08:16:00;;;;;;;30.10;24.40;;;1.70;97.90;;;;;;10502361;28;20196;-79
2021/12/23 08:21:03;;;;;;;29.37;25.33;;;1.80;97.70;;;;;;10502115;28;20748;-79
2021/12/23 08:26:13;;;;;;;28.63;24.53;;;1.80;98.10;;;;;;10500401;28;20209;-80
2021/12/23 08:31:16;;;;;;;31.00;25.13;;;2.00;97.00;;;;;;10502247;28;20249;-79
2021/12/23 08:36:20;;;;;;;31.53;23.33;;;2.10;98.30;;;;;;10500712;28;20222;-79
2021/12/23 08:41:23;;;;;;;27.77;23.50;;;2.20;97.90;;;;;;10501288;28;20224;-79
2021/12/23 08:46:25;;;;;;;30.37;24.40;;;2.30;98.50;;;;;;10500082;28;20274;-79
2021/12/23 08:51:27;;;;;;;32.03;24.90;;;2.50;98.80;;;;;;10500067;28;20530;-79
2021/12/23 08:56:31;;;;;;;31.90;25.97;;;2.70;98.70;;;;;;10499873;28;20232;-79
2021/12/23 09:01:33;;;;;;;31.93;25.70;;;2.90;98.30;;;;;;10482729;28;20225;-80
2021/12/23 09:06:35;;;;;;;32.40;23.07;;;2.90;97.90;;;;;;10499622;28;20220;-79
2021/12/23 09:11:39;;;;;;;30.80;24.30;;;3.10;96.80;;;;;;10499746;28;20644;-79
2021/12/23 09:16:41;;;;;;;28.27;22.33;;;3.30;97.60;;;;;;10499706;28;20716;-79
2021/12/23 09:21:43;;;;;;;29.37;23.30;;;3.40;98.40;;;;;;10500631;28;20240;-80
2021/12/23 09:26:52;;;;;;;28.40;22.60;;;3.60;98.10;;;;;;10499458;28;20254;-80
2021/12/23 09:37:14;;;;;;;30.30;23.50;;;3.90;97.50;;;;;;10501696;28;20204;-80
2021/12/23 09:42:19;;;;;;;26.90;20.60;;;4.00;95.90;;;;;;10500703;28;20295;-80
2021/12/23 09:47:22;;;;;;;29.37;24.20;;;4.00;97.30;;;;;;10500655;28;20707;-80
2021/12/23 09:52:25;;;;;;;29.93;24.53;;;4.10;97.70;;;;;;10488776;28;20193;-79
2021/12/23 09:57:29;;;;;;;28.40;22.40;;;4.30;97.50;;;;;;10499984;28;20239;-79
2021/12/23 10:02:31;;;;;;;31.20;24.70;;;4.30;97.40;;;;;;10497421;28;20692;-79
2021/12/23 10:07:33;;;;;;;32.50;25.60;;;4.40;97.60;;;;;;10498776;28;20228;-80
2021/12/23 10:13:13;;;;;;;36.50;24.37;;;4.50;97.60;;;;;;10497756;28;20189;-80
2021/12/23 10:39:35;;;;;;;27.43;23.77;;;5.00;97.50;;;;;;10475049;28;20216;-80
2021/12/23 10:44:39;;;;;;;32.03;24.80;;;5.10;97.60;;;;;;10499854;28;20276;-80
2021/12/23 10:49:47;;;;;;;29.17;23.97;;;5.20;97.80;;;;;;10497397;28;20861;-79
2021/12/23 11:00:17;;;;;;;31.87;23.70;;;5.40;97.70;;;;;;10497163;28;20220;-79
2021/12/23 11:05:28;;;;;;;29.20;24.13;;;5.50;97.10;;;;;;10480134;28;20207;-79
2021/12/23 11:10:58;;;;;;;30.73;23.80;;;5.60;97.30;;;;;;10498065;28;20279;-79
2021/12/23 11:37:43;;;;;;;13.20;11.87;;;6.10;97.90;;;;;;10472564;28;20261;-80
2021/12/23 11:43:12;;;;;;;17.83;12.40;;;6.20;97.80;;;;;;10499227;28;20216;-79
2021/12/23 11:48:15;;;;;;;9.57;8.57;;;6.30;97.20;;;;;;10502720;28;20212;-80
2021/12/23 11:53:17;;;;;;;10.97;9.10;;;6.40;97.10;;;;;;10503756;28;20201;-79
2021/12/23 11:58:23;;;;;;;11.50;10.30;;;6.50;97.30;;;;;;10527793;22;20239;-84
2021/12/23 12:03:27;;;;;;;16.83;14.77;;;6.70;97.10;;;;;;10506912;28;20675;-83
2021/12/23 12:08:29;;;;;;;20.93;15.73;;;6.70;96.90;;;;;;10505992;28;20642;-83
2021/12/23 12:13:32;;;;;;;24.77;18.00;;;6.80;96.70;;;;;;10502352;28;20189;-83
2021/12/23 12:18:45;;;;;;;19.10;16.10;;;6.80;97.30;;;;;;10499941;28;20585;-83
2021/12/23 12:23:47;;;;;;;14.50;10.10;;;6.90;97.20;;;;;;10483145;28;20231;-82
2021/12/23 12:28:50;;;;;;;26.87;19.67;;;6.90;97.10;;;;;;10499607;28;20706;-83
2021/12/23 12:34:04;;;;;;;29.43;18.33;;;6.90;97.00;;;;;;10499802;28;20670;-83
2021/12/23 12:39:24;;;;;;;23.97;19.40;;;6.90;96.90;;;;;;10499630;28;20224;-83
2021/12/23 12:44:41;;;;;;;26.43;18.60;;;6.90;96.90;;;;;;10499938;28;20215;-83
2021/12/23 12:49:49;;;;;;;12.30;10.93;;;6.80;97.30;;;;;;10480797;28;20208;-83
2021/12/23 12:54:59;;;;;;;9.87;8.60;;;6.80;97.60;;;;;;10497848;28;20196;-82
2021/12/23 13:00:18;;;;;;;7.37;6.67;;;6.90;97.10;;;;;;10498193;28;20324;-83
2021/12/23 13:05:29;;;;;;;6.83;6.20;;;6.90;97.40;;;;;;10500041;28;20669;-83
2021/12/23 13:10:49;;;;;;;7.40;6.00;;;7.00;97.40;;;;;;10498436;28;20240;-83
2021/12/23 13:16:13;;;;;;;6.97;6.07;;;7.00;97.30;;;;;;10503825;28;20189;-83
2021/12/23 13:21:21;;;;;;;7.07;6.37;;;7.10;97.20;;;;;;10497779;28;20702;-83
2021/12/23 13:26:24;;;;;;;7.60;6.90;;;7.20;96.20;;;;;;10495080;28;20582;-83
2021/12/23 13:31:29;;;;;;;8.00;6.50;;;7.30;97.10;;;;;;10494866;28;20584;-83
2021/12/23 13:36:38;;;;;;;7.57;6.13;;;7.40;97.10;;;;;;10494981;28;20196;-83
2021/12/23 13:41:42;;;;;;;8.40;5.87;;;7.40;96.60;;;;;;10494742;28;20244;-83
2021/12/23 13:46:56;;;;;;;6.70;6.10;;;7.40;97.00;;;;;;10496601;28;20188;-83
2021/12/23 13:51:59;;;;;;;7.33;5.90;;;7.40;96.90;;;;;;10495195;28;20200;-83
2021/12/23 13:57:03;;;;;;;7.50;6.83;;;7.40;96.00;;;;;;10493778;28;20231;-83
2021/12/23 14:02:08;;;;;;;7.93;7.00;;;7.50;96.60;;;;;;10493665;28;20220;-83
2021/12/23 14:07:16;;;;;;;7.20;6.50;;;7.60;96.30;;;;;;10493296;28;20216;-83
2021/12/23 14:12:21;;;;;;;7.37;6.50;;;7.50;96.40;;;;;;10494154;28;20192;-83
2021/12/23 14:17:29;;;;;;;7.53;6.70;;;7.50;96.80;;;;;;10493985;28;20294;-83
2021/12/23 14:27:57;;;;;;;8.13;6.87;;;7.40;97.10;;;;;;10479304;28;20217;-83
2021/12/23 14:33:08;;;;;;;6.83;6.20;;;7.40;96.80;;;;;;10494968;28;20675;-83
2021/12/23 14:38:11;;;;;;;7.13;6.47;;;7.40;97.40;;;;;;10495075;28;20564;-83
2021/12/23 14:43:13;;;;;;;7.57;6.77;;;7.40;97.60;;;;;;10495259;28;20294;-83
2021/12/23 14:48:18;;;;;;;8.40;7.30;;;7.40;97.60;;;;;;10494734;28;20226;-84
2021/12/23 14:53:22;;;;;;;7.87;7.07;;;7.40;98.00;;;;;;10496257;28;20559;-83
2021/12/23 14:58:24;;;;;;;8.83;8.03;;;7.30;98.00;;;;;;10501589;28;20236;-83
2021/12/23 15:03:31;;;;;;;7.73;6.97;;;7.30;97.60;;;;;;10477097;28;20653;-83
2021/12/23 15:08:45;;;;;;;7.67;6.97;;;7.30;97.30;;;;;;10493678;28;20223;-84
2021/12/23 15:13:47;;;;;;;7.73;7.03;;;7.40;97.40;;;;;;10475825;28;20185;-83
2021/12/23 15:19:15;;;;;;;9.30;7.43;;;7.40;97.40;;;;;;10495510;28;20623;-83
2021/12/23 15:24:24;;;;;;;11.63;9.27;;;7.50;97.50;;;;;;10483524;28;20233;-83
2021/12/23 15:29:28;;;;;;;10.17;8.73;;;7.60;96.60;;;;;;10500183;28;20213;-83
2021/12/23 15:34:33;;;;;;;8.20;7.43;;;7.60;96.70;;;;;;10500254;28;20653;-83
2021/12/23 15:39:38;;;;;;;10.57;8.83;;;7.70;96.30;;;;;;10500578;28;20216;-83
2021/12/23 15:44:44;;;;;;;8.90;8.00;;;7.70;96.40;;;;;;10499821;28;20223;-83
2021/12/23 15:49:47;;;;;;;12.17;8.70;;;7.70;96.10;;;;;;10499515;28;20307;-83
2021/12/23 15:54:51;;;;;;;7.63;6.93;;;7.80;96.10;;;;;;10500430;28;20192;-84
2021/12/23 15:59:54;;;;;;;8.27;7.47;;;7.80;96.10;;;;;;10500511;28;20216;-82
2021/12/23 16:07:16;;;;;;;8.20;7.50;;;7.70;96.60;;;;;;10501413;28;20269;-83
2021/12/23 16:10:33;;;;;;;8.87;8.10;;;7.70;96.40;;;;;;10502885;28;20222;-83
2021/12/23 16:15:38;;;;;;;11.37;8.00;;;7.70;97.40;;;;;;10503576;28;20655;-83
2021/12/23 16:20:40;;;;;;;9.47;7.40;;;7.60;97.30;;;;;;10504584;28;20235;-82
2021/12/23 16:25:43;;;;;;;8.60;7.40;;;7.60;97.40;;;;;;10503416;28;20224;-83
2021/12/23 16:30:46;;;;;;;7.57;6.70;;;7.60;97.20;;;;;;10485282;28;20303;-83
2021/12/23 16:35:48;;;;;;;6.90;6.20;;;7.70;97.40;;;;;;10504561;28;20657;-83
2021/12/23 16:40:54;;;;;;;14.13;9.07;;;7.80;97.50;;;;;;10501191;28;20218;-83
2021/12/23 16:45:56;;;;;;;8.00;7.20;;;7.90;97.40;;;;;;10502679;28;20188;-83
2021/12/23 16:50:58;;;;;;;9.33;7.87;;;7.90;97.10;;;;;;10500853;28;20301;-83
2021/12/23 17:01:22;;;;;;;8.50;7.70;;;7.90;97.70;;;;;;10450765;28;20224;-83
2021/12/23 17:06:24;;;;;;;9.23;8.30;;;7.90;97.70;;;;;;10501520;28;20279;-83
2021/12/23 17:11:28;;;;;;;9.50;8.70;;;7.80;98.00;;;;;;10499641;28;20221;-83
2021/12/23 17:16:30;;;;;;;9.60;8.70;;;7.80;98.00;;;;;;10484193;28;20203;-83
2021/12/23 17:21:53;;;;;;;8.93;8.03;;;7.70;98.10;;;;;;10502734;28;20224;-83
2021/12/23 17:26:59;;;;;;;8.80;7.50;;;7.70;98.40;;;;;;10483374;28;20197;-83
2021/12/23 17:32:02;;;;;;;7.47;6.87;;;7.70;98.50;;;;;;10500044;28;20558;-83
2021/12/23 17:37:05;;;;;;;8.10;7.20;;;7.70;98.30;;;;;;10501815;28;20244;-83
2021/12/23 17:42:09;;;;;;;8.60;7.40;;;7.70;98.20;;;;;;10502098;28;20228;-83
2021/12/23 17:47:11;;;;;;;9.30;8.07;;;7.80;98.20;;;;;;10501183;28;20240;-84
2021/12/23 17:52:13;;;;;;;17.13;15.33;;;7.80;98.40;;;;;;10503129;28;20213;-84
2021/12/23 17:57:17;;;;;;;9.13;8.23;;;7.90;98.50;;;;;;10498412;22;20642;-78
2021/12/23 18:02:21;;;;;;;8.30;7.50;;;7.90;98.70;;;;;;10500898;28;20220;-78
2021/12/23 18:07:23;;;;;;;10.60;6.43;;;8.00;98.90;;;;;;10501367;28;20675;-79
2021/12/23 18:12:26;;;;;;;6.57;5.97;;;8.10;98.90;;;;;;10501313;28;20664;-79
2021/12/23 18:17:28;;;;;;;8.90;8.00;;;8.10;98.90;;;;;;10506078;28;20248;-78
2021/12/23 18:22:30;;;;;;;13.50;10.20;;;8.20;99.50;;;;;;10520396;28;20213;-78
2021/12/23 18:27:36;;;;;;;12.83;10.13;;;8.10;99.20;;;;;;10507405;28;20216;-79
2021/12/23 18:32:38;;;;;;;10.50;9.40;;;8.00;99.50;;;;;;10483066;28;20284;-79
2021/12/23 18:37:44;;;;;;;9.47;8.50;;;7.90;99.30;;;;;;10499784;28;20212;-79
2021/12/23 18:42:52;;;;;;;11.60;8.97;;;7.90;99.40;;;;;;10499148;28;20216;-79
2021/12/23 18:47:55;;;;;;;11.77;9.20;;;7.90;99.40;;;;;;10499816;28;20236;-80
2021/12/23 18:52:59;;;;;;;10.00;9.00;;;7.80;99.60;;;;;;10501122;28;20704;-79
2021/12/23 18:58:03;;;;;;;9.47;8.50;;;7.80;99.60;;;;;;10505590;28;20378;-77
2021/12/23 19:03:18;;;;;;;9.63;8.33;;;7.70;99.80;;;;;;10504165;28;20220;-77
2021/12/23 19:08:20;;;;;;;10.60;8.37;;;7.60;99.90;;;;;;10503058;28;20258;-78
2021/12/23 19:13:23;;;;;;;10.57;9.40;;;7.60;99.90;;;;;;10504027;28;20648;-77
2021/12/23 19:18:26;;;;;;;11.97;9.93;;;7.60;99.90;;;;;;10501890;28;20271;-77
2021/12/23 19:23:28;;;;;;;8.70;7.87;;;7.60;99.90;;;;;;10503040;28;20303;-77
2021/12/23 19:28:35;;;;;;;7.13;6.43;;;7.70;99.90;;;;;;10501195;28;20204;-78
2021/12/23 19:33:37;;;;;;;7.07;6.07;;;7.80;99.90;;;;;;10502449;28;20199;-77
2021/12/23 19:38:39;;;;;;;5.90;5.40;;;7.90;99.90;;;;;;10500781;28;20212;-77
2021/12/23 19:43:42;;;;;;;7.77;5.77;;;8.10;99.90;;;;;;10500717;28;20692;-78
2021/12/23 19:48:45;;;;;;;7.23;6.50;;;8.30;99.90;;;;;;10501845;28;20219;-78
2021/12/23 19:53:47;;;;;;;6.33;4.83;;;8.40;99.90;;;;;;10500395;28;20196;-79
2021/12/23 19:58:50;;;;;;;5.43;5.03;;;8.60;99.90;;;;;;10500850;28;20631;-78
2021/12/23 20:03:52;;;;;;;8.10;5.30;;;8.70;99.90;;;;;;10501445;28;20725;-78
2021/12/23 20:08:56;;;;;;;5.50;5.00;;;8.90;99.90;;;;;;10503595;28;20213;-78
2021/12/23 20:14:00;;;;;;;6.73;5.30;;;9.00;99.90;;;;;;10503675;28;20546;-77
2021/12/23 20:19:04;;;;;;;7.10;6.03;;;9.10;99.90;;;;;;10499767;28;20235;-78
2021/12/23 20:24:07;;;;;;;6.70;5.97;;;9.10;99.90;;;;;;10499400;28;20220;-78
2021/12/23 20:29:10;;;;;;;6.20;5.13;;;9.10;99.90;;;;;;10499349;28;20578;-78
2021/12/23 20:34:13;;;;;;;6.93;5.80;;;9.20;99.90;;;;;;10499449;28;20189;-78
2021/12/23 20:39:15;;;;;;;5.70;4.70;;;9.20;99.90;;;;;;10504457;28;20274;-78
2021/12/23 20:44:18;;;;;;;5.33;4.67;;;9.20;99.90;;;;;;10504250;28;20763;-79
2021/12/23 20:49:23;;;;;;;5.93;4.93;;;9.30;99.90;;;;;;10504423;28;20212;-80
2021/12/23 20:54:36;;;;;;;5.37;4.90;;;9.40;99.90;;;;;;10503672;28;20216;-79
2021/12/23 20:59:40;;;;;;;5.50;5.00;;;9.50;99.90;;;;;;10503902;28;20227;-79
2021/12/23 21:04:43;;;;;;;4.90;4.50;;;9.50;99.90;;;;;;10503894;28;20220;-79
2021/12/23 21:09:46;;;;;;;5.53;5.00;;;9.60;99.90;;;;;;10504066;28;20211;-79
2021/12/23 21:14:49;;;;;;;4.90;4.50;;;9.60;99.90;;;;;;10503161;28;20215;-77
2021/12/23 21:19:53;;;;;;;5.27;4.87;;;9.50;99.90;;;;;;10502223;28;20633;-79
2021/12/23 21:24:55;;;;;;;5.33;4.83;;;9.50;99.90;;;;;;10503074;28;20306;-79
2021/12/23 21:29:58;;;;;;;5.60;5.10;;;9.50;99.90;;;;;;10516623;28;20216;-78
2021/12/23 21:35:01;;;;;;;4.67;4.37;;;9.50;99.90;;;;;;10507057;28;20228;-79
2021/12/23 21:40:05;;;;;;;5.70;5.17;;;9.50;99.90;;;;;;10501126;28;20219;-78
2021/12/23 21:45:10;;;;;;;5.37;4.97;;;9.50;99.90;;;;;;10501866;28;20236;-78
2021/12/23 21:50:12;;;;;;;5.67;4.97;;;9.50;99.90;;;;;;10484380;28;20247;-78
2021/12/23 21:55:24;;;;;;;5.70;5.20;;;9.50;99.90;;;;;;10502641;28;20620;-78
2021/12/23 22:00:30;;;;;;;5.47;4.97;;;9.50;99.90;;;;;;10500173;28;20315;-79
2021/12/23 22:05:33;;;;;;;7.17;5.30;;;9.50;99.90;;;;;;10501393;28;20217;-79
2021/12/23 22:10:36;;;;;;;5.20;4.70;;;9.50;99.90;;;;;;10501505;28;20228;-78
2021/12/23 22:15:42;;;;;;;5.20;4.80;;;9.50;99.90;;;;;;10501231;28;20188;-78
2021/12/23 22:20:45;;;;;;;5.87;4.93;;;9.50;99.90;;;;;;10499916;28;20220;-78
2021/12/23 22:25:47;;;;;;;5.53;5.03;;;9.50;99.90;;;;;;10500510;28;20692;-78
2021/12/23 22:30:51;;;;;;;8.07;4.23;;;9.50;99.90;;;;;;10499151;28;20208;-78
2021/12/23 22:35:54;;;;;;;5.03;4.60;;;9.50;99.90;;;;;;10499538;28;20275;-79
2021/12/23 22:40:56;;;;;;;7.30;5.93;;;9.50;99.90;;;;;;10501156;28;20295;-79
2021/12/23 22:46:00;;;;;;;5.57;4.80;;;9.40;99.90;;;;;;10501209;28;20271;-79
2021/12/23 22:51:02;;;;;;;5.00;4.60;;;9.40;99.90;;;;;;10502370;28;20220;-79
2021/12/23 22:56:05;;;;;;;5.20;4.70;;;9.40;99.90;;;;;;10506056;28;20189;-79
2021/12/23 23:01:08;;;;;;;5.90;4.90;;;9.40;99.90;;;;;;10500438;28;20228;-79
2021/12/23 23:06:10;;;;;;;6.47;5.80;;;9.40;99.90;;;;;;10497521;28;20307;-79
2021/12/23 23:11:18;;;;;;;5.07;4.57;;;9.30;99.90;;;;;;10498045;28;20213;-78
2021/12/23 23:16:42;;;;;;;5.77;5.17;;;9.30;99.90;;;;;;10497459;28;20188;-78
2021/12/23 23:21:46;;;;;;;5.20;4.70;;;9.20;99.90;;;;;;10498076;28;20209;-79
2021/12/23 23:26:55;;;;;;;5.00;4.60;;;9.20;99.90;;;;;;10497383;28;20200;-78
2021/12/23 23:37:32;;;;;;;5.30;4.60;;;9.20;99.90;;;;;;10498207;28;20184;-78
2021/12/23 23:42:46;;;;;;;5.33;4.90;;;9.20;99.90;;;;;;10506444;28;20204;-79
2021/12/23 23:47:50;;;;;;;4.43;4.00;;;9.30;99.90;;;;;;10501969;28;20217;-78
2021/12/23 23:52:54;;;;;;;4.73;4.33;;;9.40;99.90;;;;;;10501913;28;20189;-77
2021/12/23 23:57:57;;;;;;;4.60;4.30;;;9.50;99.90;;;;;;10540514;22;20275;-83
